sensor_id;sensor_type;location;lat;lon;timestamp;pressure;altitude;pressure_sealevel;temperature;humidity
17521;BME280;8878;-33.370;-70.552;2023-05-27T00:02:16;92551.44;;;15.80;57.56
17521;BME280;8878;-33.370;-70.552;2023-05-27T00:04:46;92544.34;;;15.94;57.51
17521;BME280;8878;-33.370;-70.552;2023-05-27T00:07:15;92543.75;;;15.97;57.83
17521;BME280;8878;-33.370;-70.552;2023-05-27T00:09:44;92545.41;;;15.93;57.69
17521;BME280;8878;-33.370;-70.552;2023-05-27T00:12:14;92542.75;;;15.93;57.98
17521;BME280;8878;-33.370;-70.552;2023-05-27T00:14:45;92549.59;;;15.80;57.87
17521;BME280;8878;-33.370;-70.552;2023-05-27T00:17:15;92545.06;;;15.38;58.70
17521;BME280;8878;-33.370;-70.552;2023-05-27T00:19:44;92543.56;;;15.51;58.70
17521;BME280;8878;-33.370;-70.552;2023-05-27T00:22:14;92542.53;;;15.71;58.48
17521;BME280;8878;-33.370;-70.552;2023-05-27T00:24:44;92539.59;;;15.72;58.34
17521;BME280;8878;-33.370;-70.552;2023-05-27T00:27:13;92533.97;;;15.74;58.45
17521;BME280;8878;-33.370;-70.552;2023-05-27T00:29:44;92539.44;;;15.63;58.20
17521;BME280;8878;-33.370;-70.552;2023-05-27T00:32:14;92535.94;;;15.44;58.34
17521;BME280;8878;-33.370;-70.552;2023-05-27T00:34:44;92536.66;;;15.50;58.52
17521;BME280;8878;-33.370;-70.552;2023-05-27T00:37:13;92529.94;;;15.57;58.71
17521;BME280;8878;-33.370;-70.552;2023-05-27T00:39:43;92523.28;;;15.60;58.92
17521;BME280;8878;-33.370;-70.552;2023-05-27T00:42:13;92524.63;;;15.57;58.56
17521;BME280;8878;-33.370;-70.552;2023-05-27T00:44:44;92518.16;;;15.63;58.25
17521;BME280;8878;-33.370;-70.552;2023-05-27T00:47:14;92520.16;;;15.29;58.93
17521;BME280;8878;-33.370;-70.552;2023-05-27T00:49:46;92519.78;;;15.41;58.74
17521;BME280;8878;-33.370;-70.552;2023-05-27T00:52:15;92517.94;;;15.60;58.80
17521;BME280;8878;-33.370;-70.552;2023-05-27T00:54:46;92504.53;;;15.70;58.57
17521;BME280;8878;-33.370;-70.552;2023-05-27T00:57:15;92522.53;;;15.73;58.80
17521;BME280;8878;-33.370;-70.552;2023-05-27T00:59:47;92518.38;;;15.67;58.51
17521;BME280;8878;-33.370;-70.552;2023-05-27T01:02:16;92515.44;;;15.69;58.55
17521;BME280;8878;-33.370;-70.552;2023-05-27T01:04:46;92506.59;;;15.73;57.76
17521;BME280;8878;-33.370;-70.552;2023-05-27T01:07:20;92518.81;;;15.55;58.25
17521;BME280;8878;-33.370;-70.552;2023-05-27T01:09:55;92526.22;;;15.58;58.27
17521;BME280;8878;-33.370;-70.552;2023-05-27T01:12:31;92519.34;;;15.10;58.93
17521;BME280;8878;-33.370;-70.552;2023-05-27T01:15:06;92517.75;;;15.09;58.98
17521;BME280;8878;-33.370;-70.552;2023-05-27T01:17:38;92518.41;;;15.43;58.39
17521;BME280;8878;-33.370;-70.552;2023-05-27T01:20:11;92515.88;;;14.91;59.47
17521;BME280;8878;-33.370;-70.552;2023-05-27T01:22:45;92523.38;;;14.83;59.73
17521;BME280;8878;-33.370;-70.552;2023-05-27T01:25:18;92510.47;;;15.19;58.97
17521;BME280;8878;-33.370;-70.552;2023-05-27T01:27:48;92500.03;;;15.04;59.28
17521;BME280;8878;-33.370;-70.552;2023-05-27T01:30:20;92507.47;;;15.26;59.30
17521;BME280;8878;-33.370;-70.552;2023-05-27T01:32:53;92503.59;;;15.37;59.40
17521;BME280;8878;-33.370;-70.552;2023-05-27T01:35:29;92504.63;;;15.41;59.31
17521;BME280;8878;-33.370;-70.552;2023-05-27T01:38:05;92509.28;;;15.49;58.42
17521;BME280;8878;-33.370;-70.552;2023-05-27T01:40:36;92516.16;;;15.55;58.51
17521;BME280;8878;-33.370;-70.552;2023-05-27T01:43:07;92514.84;;;15.53;58.69
17521;BME280;8878;-33.370;-70.552;2023-05-27T01:45:37;92504.06;;;15.20;59.00
17521;BME280;8878;-33.370;-70.552;2023-05-27T01:48:07;92512.78;;;15.26;59.49
17521;BME280;8878;-33.370;-70.552;2023-05-27T01:50:37;92505.19;;;15.38;59.26
17521;BME280;8878;-33.370;-70.552;2023-05-27T01:53:08;92499.34;;;15.17;59.29
17521;BME280;8878;-33.370;-70.552;2023-05-27T01:55:38;92489.84;;;14.87;60.21
17521;BME280;8878;-33.370;-70.552;2023-05-27T01:58:08;92490.47;;;15.03;60.34
17521;BME280;8878;-33.370;-70.552;2023-05-27T02:00:37;92481.59;;;15.13;60.31
17521;BME280;8878;-33.370;-70.552;2023-05-27T02:03:07;92486.75;;;15.23;60.03
17521;BME280;8878;-33.370;-70.552;2023-05-27T02:05:36;92470.00;;;14.80;60.52
17521;BME280;8878;-33.370;-70.552;2023-05-27T02:08:09;92459.78;;;14.68;60.81
17521;BME280;8878;-33.370;-70.552;2023-05-27T02:10:38;92463.53;;;14.67;61.18
17521;BME280;8878;-33.370;-70.552;2023-05-27T02:13:08;92458.59;;;14.79;61.16
17521;BME280;8878;-33.370;-70.552;2023-05-27T02:15:37;92445.66;;;14.97;60.59
17521;BME280;8878;-33.370;-70.552;2023-05-27T02:18:07;92448.41;;;15.10;60.05
17521;BME280;8878;-33.370;-70.552;2023-05-27T02:20:37;92465.16;;;15.29;59.31
17521;BME280;8878;-33.370;-70.552;2023-05-27T02:23:08;92462.53;;;15.06;59.35
17521;BME280;8878;-33.370;-70.552;2023-05-27T02:25:38;92457.88;;;14.98;59.98
17521;BME280;8878;-33.370;-70.552;2023-05-27T02:28:07;92446.69;;;15.19;59.43
17521;BME280;8878;-33.370;-70.552;2023-05-27T02:30:38;92444.25;;;15.23;58.77
17521;BME280;8878;-33.370;-70.552;2023-05-27T02:33:07;92436.59;;;14.98;59.62
17521;BME280;8878;-33.370;-70.552;2023-05-27T02:35:37;92439.34;;;15.11;59.38
17521;BME280;8878;-33.370;-70.552;2023-05-27T02:38:09;92435.47;;;15.22;59.31
17521;BME280;8878;-33.370;-70.552;2023-05-27T02:40:38;92451.28;;;15.33;58.65
17521;BME280;8878;-33.370;-70.552;2023-05-27T02:43:09;92450.56;;;15.27;58.26
17521;BME280;8878;-33.370;-70.552;2023-05-27T02:45:39;92448.75;;;15.22;58.65
17521;BME280;8878;-33.370;-70.552;2023-05-27T02:48:09;92447.91;;;15.27;58.29
17521;BME280;8878;-33.370;-70.552;2023-05-27T02:50:38;92453.13;;;15.13;58.78
17521;BME280;8878;-33.370;-70.552;2023-05-27T02:53:09;92440.66;;;15.33;58.48
17521;BME280;8878;-33.370;-70.552;2023-05-27T02:55:39;92437.28;;;15.46;58.30
17521;BME280;8878;-33.370;-70.552;2023-05-27T02:58:08;92431.69;;;15.47;58.42
17521;BME280;8878;-33.370;-70.552;2023-05-27T03:00:38;92435.94;;;15.48;58.03
17521;BME280;8878;-33.370;-70.552;2023-05-27T03:03:07;92454.81;;;15.47;58.10
17521;BME280;8878;-33.370;-70.552;2023-05-27T03:05:37;92448.91;;;15.31;58.20
17521;BME280;8878;-33.370;-70.552;2023-05-27T03:08:09;92456.47;;;15.24;58.38
17521;BME280;8878;-33.370;-70.552;2023-05-27T03:10:38;92451.34;;;15.27;58.32
17521;BME280;8878;-33.370;-70.552;2023-05-27T03:13:07;92458.75;;;15.31;58.28
17521;BME280;8878;-33.370;-70.552;2023-05-27T03:15:37;92443.25;;;15.19;58.41
17521;BME280;8878;-33.370;-70.552;2023-05-27T03:18:06;92427.66;;;15.31;58.59
17521;BME280;8878;-33.370;-70.552;2023-05-27T03:20:36;92426.78;;;15.36;58.38
17521;BME280;8878;-33.370;-70.552;2023-05-27T03:23:05;92410.47;;;15.05;58.34
17521;BME280;8878;-33.370;-70.552;2023-05-27T03:25:37;92411.03;;;15.02;58.11
17521;BME280;8878;-33.370;-70.552;2023-05-27T03:28:07;92394.53;;;15.05;57.91
17521;BME280;8878;-33.370;-70.552;2023-05-27T03:30:37;92386.22;;;15.11;58.10
17521;BME280;8878;-33.370;-70.552;2023-05-27T03:33:07;92397.25;;;15.00;58.17
17521;BME280;8878;-33.370;-70.552;2023-05-27T03:35:37;92408.84;;;14.85;58.85
17521;BME280;8878;-33.370;-70.552;2023-05-27T03:38:07;92395.81;;;14.88;59.12
17521;BME280;8878;-33.370;-70.552;2023-05-27T03:40:39;92356.69;;;14.94;58.94
17521;BME280;8878;-33.370;-70.552;2023-05-27T03:43:08;92373.63;;;15.17;57.99
17521;BME280;8878;-33.370;-70.552;2023-05-27T03:45:38;92385.34;;;15.16;56.71
17521;BME280;8878;-33.370;-70.552;2023-05-27T03:48:07;92368.19;;;15.27;55.73
17521;BME280;8878;-33.370;-70.552;2023-05-27T03:50:36;92376.78;;;15.38;55.17
17521;BME280;8878;-33.370;-70.552;2023-05-27T03:53:06;92393.94;;;15.45;55.24
17521;BME280;8878;-33.370;-70.552;2023-05-27T03:55:37;92383.97;;;15.37;55.00
17521;BME280;8878;-33.370;-70.552;2023-05-27T03:58:07;92376.88;;;15.33;55.26
17521;BME280;8878;-33.370;-70.552;2023-05-27T04:00:36;92381.44;;;14.89;56.91
17521;BME280;8878;-33.370;-70.552;2023-05-27T04:03:05;92385.38;;;14.73;57.80
17521;BME280;8878;-33.370;-70.552;2023-05-27T04:05:35;92367.47;;;14.36;59.40
17521;BME280;8878;-33.370;-70.552;2023-05-27T04:08:05;92354.59;;;14.25;60.15
17521;BME280;8878;-33.370;-70.552;2023-05-27T04:10:35;92383.16;;;14.80;59.38
17521;BME280;8878;-33.370;-70.552;2023-05-27T04:13:06;92408.66;;;15.00;59.18
17521;BME280;8878;-33.370;-70.552;2023-05-27T04:15:36;92388.34;;;14.91;58.88
17521;BME280;8878;-33.370;-70.552;2023-05-27T04:18:06;92360.97;;;14.71;57.81
17521;BME280;8878;-33.370;-70.552;2023-05-27T04:20:37;92384.03;;;14.52;58.90
17521;BME280;8878;-33.370;-70.552;2023-05-27T04:23:07;92367.47;;;14.84;58.46
17521;BME280;8878;-33.370;-70.552;2023-05-27T04:25:37;92361.00;;;14.90;58.54
17521;BME280;8878;-33.370;-70.552;2023-05-27T04:28:09;92389.25;;;14.38;60.44
17521;BME280;8878;-33.370;-70.552;2023-05-27T04:30:39;92387.38;;;14.39;60.86
17521;BME280;8878;-33.370;-70.552;2023-05-27T04:33:09;92399.31;;;14.41;60.95
17521;BME280;8878;-33.370;-70.552;2023-05-27T04:35:39;92407.94;;;14.23;61.62
17521;BME280;8878;-33.370;-70.552;2023-05-27T04:38:10;92403.56;;;14.14;62.50
17521;BME280;8878;-33.370;-70.552;2023-05-27T04:40:43;92409.63;;;14.43;61.76
17521;BME280;8878;-33.370;-70.552;2023-05-27T04:43:15;92401.63;;;14.48;61.25
17521;BME280;8878;-33.370;-70.552;2023-05-27T04:45:45;92394.84;;;14.32;62.16
17521;BME280;8878;-33.370;-70.552;2023-05-27T04:48:15;92399.78;;;14.67;61.45
17521;BME280;8878;-33.370;-70.552;2023-05-27T04:50:44;92402.56;;;15.00;60.35
17521;BME280;8878;-33.370;-70.552;2023-05-27T04:53:15;92405.72;;;14.83;60.41
17521;BME280;8878;-33.370;-70.552;2023-05-27T04:55:45;92400.91;;;15.04;60.56
17521;BME280;8878;-33.370;-70.552;2023-05-27T04:58:16;92412.38;;;14.99;60.12
17521;BME280;8878;-33.370;-70.552;2023-05-27T05:00:45;92435.91;;;15.11;60.46
17521;BME280;8878;-33.370;-70.552;2023-05-27T05:03:20;92414.41;;;14.88;60.18
17521;BME280;8878;-33.370;-70.552;2023-05-27T05:05:53;92394.03;;;14.60;60.74
17521;BME280;8878;-33.370;-70.552;2023-05-27T05:08:23;92389.19;;;14.86;60.61
17521;BME280;8878;-33.370;-70.552;2023-05-27T05:10:53;92415.91;;;14.95;60.79
17521;BME280;8878;-33.370;-70.552;2023-05-27T05:13:24;92419.44;;;14.90;60.58
17521;BME280;8878;-33.370;-70.552;2023-05-27T05:15:56;92411.13;;;14.73;60.55
17521;BME280;8878;-33.370;-70.552;2023-05-27T05:18:25;92415.34;;;14.98;60.33
17521;BME280;8878;-33.370;-70.552;2023-05-27T05:20:55;92407.31;;;15.03;59.55
17521;BME280;8878;-33.370;-70.552;2023-05-27T05:23:24;92433.97;;;15.16;59.30
17521;BME280;8878;-33.370;-70.552;2023-05-27T05:25:53;92422.28;;;14.75;59.48
17521;BME280;8878;-33.370;-70.552;2023-05-27T05:28:27;92444.41;;;14.89;59.09
17521;BME280;8878;-33.370;-70.552;2023-05-27T05:30:56;92437.25;;;14.89;58.63
17521;BME280;8878;-33.370;-70.552;2023-05-27T05:33:26;92388.63;;;14.70;58.91
17521;BME280;8878;-33.370;-70.552;2023-05-27T05:35:55;92358.13;;;15.05;58.30
17521;BME280;8878;-33.370;-70.552;2023-05-27T05:38:24;92352.22;;;15.08;58.03
17521;BME280;8878;-33.370;-70.552;2023-05-27T05:40:54;92387.34;;;15.05;58.22
17521;BME280;8878;-33.370;-70.552;2023-05-27T05:43:25;92418.22;;;15.01;57.30
17521;BME280;8878;-33.370;-70.552;2023-05-27T05:45:54;92396.41;;;15.04;57.93
17521;BME280;8878;-33.370;-70.552;2023-05-27T05:48:24;92408.09;;;15.03;57.37
17521;BME280;8878;-33.370;-70.552;2023-05-27T05:50:53;92378.16;;;14.98;56.58
17521;BME280;8878;-33.370;-70.552;2023-05-27T05:53:23;92374.06;;;15.05;56.25
17521;BME280;8878;-33.370;-70.552;2023-05-27T05:55:52;92344.84;;;15.05;54.50
17521;BME280;8878;-33.370;-70.552;2023-05-27T05:58:22;92337.00;;;15.33;55.19
17521;BME280;8878;-33.370;-70.552;2023-05-27T06:00:53;92340.63;;;15.37;55.17
17521;BME280;8878;-33.370;-70.552;2023-05-27T06:03:22;92346.66;;;15.42;55.39
17521;BME280;8878;-33.370;-70.552;2023-05-27T06:05:52;92342.69;;;15.26;55.31
17521;BME280;8878;-33.370;-70.552;2023-05-27T06:08:21;92349.69;;;14.79;56.91
17521;BME280;8878;-33.370;-70.552;2023-05-27T06:10:51;92357.53;;;15.08;55.99
17521;BME280;8878;-33.370;-70.552;2023-05-27T06:13:20;92350.13;;;15.24;55.40
17521;BME280;8878;-33.370;-70.552;2023-05-27T06:15:50;92354.22;;;15.35;55.54
17521;BME280;8878;-33.370;-70.552;2023-05-27T06:18:21;92338.06;;;15.32;55.00
17521;BME280;8878;-33.370;-70.552;2023-05-27T06:20:51;92350.22;;;15.19;55.54
17521;BME280;8878;-33.370;-70.552;2023-05-27T06:23:20;92359.91;;;15.28;55.87
17521;BME280;8878;-33.370;-70.552;2023-05-27T06:25:50;92348.91;;;15.16;56.25
17521;BME280;8878;-33.370;-70.552;2023-05-27T06:28:19;92367.16;;;15.23;56.16
17521;BME280;8878;-33.370;-70.552;2023-05-27T06:30:49;92374.13;;;14.34;58.20
17521;BME280;8878;-33.370;-70.552;2023-05-27T06:33:20;92352.69;;;14.06;59.75
17521;BME280;8878;-33.370;-70.552;2023-05-27T06:35:50;92333.03;;;14.55;59.46
17521;BME280;8878;-33.370;-70.552;2023-05-27T06:38:19;92353.06;;;14.66;59.19
17521;BME280;8878;-33.370;-70.552;2023-05-27T06:40:49;92348.13;;;14.78;58.87
17521;BME280;8878;-33.370;-70.552;2023-05-27T06:43:18;92355.97;;;14.46;60.07
17521;BME280;8878;-33.370;-70.552;2023-05-27T06:45:48;92349.88;;;14.45;59.61
17521;BME280;8878;-33.370;-70.552;2023-05-27T06:48:17;92324.88;;;14.23;60.37
17521;BME280;8878;-33.370;-70.552;2023-05-27T06:50:49;92306.56;;;14.26;60.67
17521;BME280;8878;-33.370;-70.552;2023-05-27T06:53:18;92311.94;;;14.64;60.43
17521;BME280;8878;-33.370;-70.552;2023-05-27T06:55:47;92323.00;;;14.89;59.58
17521;BME280;8878;-33.370;-70.552;2023-05-27T06:58:17;92331.81;;;14.85;59.43
17521;BME280;8878;-33.370;-70.552;2023-05-27T07:00:47;92333.81;;;14.32;60.92
17521;BME280;8878;-33.370;-70.552;2023-05-27T07:03:16;92331.22;;;14.27;61.47
17521;BME280;8878;-33.370;-70.552;2023-05-27T07:05:48;92320.75;;;14.40;60.78
17521;BME280;8878;-33.370;-70.552;2023-05-27T07:08:17;92323.28;;;14.27;61.39
17521;BME280;8878;-33.370;-70.552;2023-05-27T07:10:46;92328.72;;;14.40;61.29
17521;BME280;8878;-33.370;-70.552;2023-05-27T07:13:16;92314.25;;;14.28;61.87
17521;BME280;8878;-33.370;-70.552;2023-05-27T07:15:45;92296.84;;;14.17;62.19
17521;BME280;8878;-33.370;-70.552;2023-05-27T07:18:15;92305.31;;;14.42;61.57
17521;BME280;8878;-33.370;-70.552;2023-05-27T07:20:44;92313.59;;;14.60;61.61
17521;BME280;8878;-33.370;-70.552;2023-05-27T07:23:15;92282.72;;;14.45;61.29
17521;BME280;8878;-33.370;-70.552;2023-05-27T07:25:45;92275.09;;;14.38;61.77
17521;BME280;8878;-33.370;-70.552;2023-05-27T07:28:15;92296.34;;;14.38;61.28
17521;BME280;8878;-33.370;-70.552;2023-05-27T07:30:44;92332.22;;;14.31;61.92
17521;BME280;8878;-33.370;-70.552;2023-05-27T07:33:15;92324.88;;;14.23;62.07
17521;BME280;8878;-33.370;-70.552;2023-05-27T07:35:45;92283.19;;;13.81;63.96
17521;BME280;8878;-33.370;-70.552;2023-05-27T07:38:16;92287.19;;;14.02;63.32
17521;BME280;8878;-33.370;-70.552;2023-05-27T07:40:45;92293.84;;;14.23;62.54
17521;BME280;8878;-33.370;-70.552;2023-05-27T07:43:17;92289.69;;;14.36;62.71
17521;BME280;8878;-33.370;-70.552;2023-05-27T07:45:46;92277.75;;;14.38;62.21
17521;BME280;8878;-33.370;-70.552;2023-05-27T07:48:16;92284.16;;;13.90;63.56
17521;BME280;8878;-33.370;-70.552;2023-05-27T07:50:46;92269.44;;;14.21;63.30
17521;BME280;8878;-33.370;-70.552;2023-05-27T07:53:17;92263.03;;;14.27;63.01
17521;BME280;8878;-33.370;-70.552;2023-05-27T07:55:47;92273.28;;;14.34;62.57
17521;BME280;8878;-33.370;-70.552;2023-05-27T07:58:16;92284.44;;;14.12;62.66
17521;BME280;8878;-33.370;-70.552;2023-05-27T08:00:46;92285.47;;;13.92;63.88
17521;BME280;8878;-33.370;-70.552;2023-05-27T08:03:17;92306.03;;;14.00;63.74
17521;BME280;8878;-33.370;-70.552;2023-05-27T08:05:47;92304.53;;;13.42;65.13
17521;BME280;8878;-33.370;-70.552;2023-05-27T08:08:19;92292.94;;;13.32;65.82
17521;BME280;8878;-33.370;-70.552;2023-05-27T08:10:49;92302.78;;;13.27;66.30
17521;BME280;8878;-33.370;-70.552;2023-05-27T08:13:19;92318.13;;;13.59;65.18
17521;BME280;8878;-33.370;-70.552;2023-05-27T08:15:48;92319.19;;;13.58;65.09
17521;BME280;8878;-33.370;-70.552;2023-05-27T08:18:18;92313.09;;;13.57;65.27
17521;BME280;8878;-33.370;-70.552;2023-05-27T08:20:47;92315.06;;;13.76;65.30
17521;BME280;8878;-33.370;-70.552;2023-05-27T08:23:18;92327.38;;;13.90;65.09
17521;BME280;8878;-33.370;-70.552;2023-05-27T08:25:48;92337.53;;;13.83;64.84
17521;BME280;8878;-33.370;-70.552;2023-05-27T08:28:17;92323.81;;;14.00;64.17
17521;BME280;8878;-33.370;-70.552;2023-05-27T08:30:47;92295.97;;;13.73;64.44
17521;BME280;8878;-33.370;-70.552;2023-05-27T08:33:17;92303.13;;;13.78;64.75
17521;BME280;8878;-33.370;-70.552;2023-05-27T08:35:47;92298.88;;;14.01;63.92
17521;BME280;8878;-33.370;-70.552;2023-05-27T08:38:19;92313.09;;;14.10;63.76
17521;BME280;8878;-33.370;-70.552;2023-05-27T08:40:48;92302.09;;;13.98;63.44
17521;BME280;8878;-33.370;-70.552;2023-05-27T08:43:18;92294.84;;;13.56;64.85
17521;BME280;8878;-33.370;-70.552;2023-05-27T08:45:48;92301.41;;;13.87;64.72
17521;BME280;8878;-33.370;-70.552;2023-05-27T08:48:18;92307.13;;;13.99;63.90
17521;BME280;8878;-33.370;-70.552;2023-05-27T08:50:48;92315.75;;;13.86;63.56
17521;BME280;8878;-33.370;-70.552;2023-05-27T08:53:20;92290.00;;;13.34;65.02
17521;BME280;8878;-33.370;-70.552;2023-05-27T08:55:51;92307.81;;;13.57;64.98
17521;BME280;8878;-33.370;-70.552;2023-05-27T08:58:23;92282.28;;;13.38;65.64
17521;BME280;8878;-33.370;-70.552;2023-05-27T09:00:53;92298.56;;;13.55;64.94
17521;BME280;8878;-33.370;-70.552;2023-05-27T09:03:23;92284.44;;;13.36;65.55
17521;BME280;8878;-33.370;-70.552;2023-05-27T09:05:55;92284.78;;;13.53;65.05
17521;BME280;8878;-33.370;-70.552;2023-05-27T09:08:26;92276.31;;;13.51;65.01
17521;BME280;8878;-33.370;-70.552;2023-05-27T09:10:56;92290.81;;;13.35;65.84
17521;BME280;8878;-33.370;-70.552;2023-05-27T09:13:27;92278.75;;;13.18;65.85
17521;BME280;8878;-33.370;-70.552;2023-05-27T09:15:59;92283.72;;;13.25;65.87
17521;BME280;8878;-33.370;-70.552;2023-05-27T09:18:30;92296.66;;;13.31;65.40
17521;BME280;8878;-33.370;-70.552;2023-05-27T09:21:00;92282.53;;;13.07;65.96
17521;BME280;8878;-33.370;-70.552;2023-05-27T09:23:36;92275.66;;;13.06;65.97
17521;BME280;8878;-33.370;-70.552;2023-05-27T09:26:08;92291.72;;;13.20;65.57
17521;BME280;8878;-33.370;-70.552;2023-05-27T09:28:38;92286.31;;;12.96;66.16
17521;BME280;8878;-33.370;-70.552;2023-05-27T09:31:08;92292.78;;;13.19;65.35
17521;BME280;8878;-33.370;-70.552;2023-05-27T09:33:39;92281.34;;;13.23;64.75
17521;BME280;8878;-33.370;-70.552;2023-05-27T09:36:08;92273.66;;;13.51;64.43
17521;BME280;8878;-33.370;-70.552;2023-05-27T09:38:40;92274.50;;;13.75;63.82
17521;BME280;8878;-33.370;-70.552;2023-05-27T09:41:09;92280.81;;;13.79;62.92
17521;BME280;8878;-33.370;-70.552;2023-05-27T09:43:39;92282.88;;;13.58;62.71
17521;BME280;8878;-33.370;-70.552;2023-05-27T09:46:11;92290.94;;;13.77;62.78
17521;BME280;8878;-33.370;-70.552;2023-05-27T09:48:42;92286.59;;;13.57;62.91
17521;BME280;8878;-33.370;-70.552;2023-05-27T09:51:13;92275.00;;;13.77;62.79
17521;BME280;8878;-33.370;-70.552;2023-05-27T09:53:45;92265.31;;;13.91;62.05
17521;BME280;8878;-33.370;-70.552;2023-05-27T09:56:16;92263.59;;;14.00;61.66
17521;BME280;8878;-33.370;-70.552;2023-05-27T09:58:46;92272.41;;;13.96;61.82
17521;BME280;8878;-33.370;-70.552;2023-05-27T10:01:15;92256.84;;;13.37;62.76
17521;BME280;8878;-33.370;-70.552;2023-05-27T10:03:46;92249.91;;;13.12;63.39
17521;BME280;8878;-33.370;-70.552;2023-05-27T10:06:15;92259.09;;;13.24;63.87
17521;BME280;8878;-33.370;-70.552;2023-05-27T10:08:47;92248.88;;;13.42;63.87
17521;BME280;8878;-33.370;-70.552;2023-05-27T10:11:16;92242.19;;;13.44;63.42
17521;BME280;8878;-33.370;-70.552;2023-05-27T10:13:47;92246.97;;;13.47;63.59
17521;BME280;8878;-33.370;-70.552;2023-05-27T10:16:21;92233.50;;;13.39;63.87
17521;BME280;8878;-33.370;-70.552;2023-05-27T10:18:54;92247.34;;;13.36;63.77
17521;BME280;8878;-33.370;-70.552;2023-05-27T10:21:28;92219.63;;;12.89;64.24
17521;BME280;8878;-33.370;-70.552;2023-05-27T10:24:01;92224.22;;;13.12;64.89
17521;BME280;8878;-33.370;-70.552;2023-05-27T10:26:35;92217.31;;;13.16;64.06
17521;BME280;8878;-33.370;-70.552;2023-05-27T10:29:08;92220.47;;;13.18;63.85
17521;BME280;8878;-33.370;-70.552;2023-05-27T10:31:45;92220.06;;;13.35;63.97
17521;BME280;8878;-33.370;-70.552;2023-05-27T10:34:15;92224.69;;;13.48;62.96
17521;BME280;8878;-33.370;-70.552;2023-05-27T10:36:45;92229.19;;;13.48;62.79
17521;BME280;8878;-33.370;-70.552;2023-05-27T10:39:18;92236.53;;;13.56;62.14
17521;BME280;8878;-33.370;-70.552;2023-05-27T10:41:50;92254.59;;;12.86;65.15
17521;BME280;8878;-33.370;-70.552;2023-05-27T10:44:27;92269.69;;;13.24;65.02
17521;BME280;8878;-33.370;-70.552;2023-05-27T10:47:00;92274.94;;;13.29;64.02
17521;BME280;8878;-33.370;-70.552;2023-05-27T10:49:33;92272.47;;;13.38;64.41
17521;BME280;8878;-33.370;-70.552;2023-05-27T10:52:08;92278.28;;;13.06;64.39
17521;BME280;8878;-33.370;-70.552;2023-05-27T10:54:42;92260.88;;;13.00;64.61
17521;BME280;8878;-33.370;-70.552;2023-05-27T10:57:12;92254.38;;;13.16;64.72
17521;BME280;8878;-33.370;-70.552;2023-05-27T10:59:47;92253.53;;;13.26;64.07
17521;BME280;8878;-33.370;-70.552;2023-05-27T11:02:17;92251.25;;;13.14;64.39
17521;BME280;8878;-33.370;-70.552;2023-05-27T11:04:48;92266.03;;;13.20;64.27
17521;BME280;8878;-33.370;-70.552;2023-05-27T11:07:18;92255.19;;;13.17;64.13
17521;BME280;8878;-33.370;-70.552;2023-05-27T11:09:51;92256.69;;;13.28;63.60
17521;BME280;8878;-33.370;-70.552;2023-05-27T11:12:21;92247.03;;;13.37;63.63
17521;BME280;8878;-33.370;-70.552;2023-05-27T11:14:52;92242.66;;;13.27;63.06
17521;BME280;8878;-33.370;-70.552;2023-05-27T11:17:22;92248.69;;;13.33;63.17
17521;BME280;8878;-33.370;-70.552;2023-05-27T11:19:53;92241.03;;;12.98;62.99
17521;BME280;8878;-33.370;-70.552;2023-05-27T11:22:22;92261.38;;;13.02;63.87
17521;BME280;8878;-33.370;-70.552;2023-05-27T11:25:03;92257.56;;;13.18;63.62
17521;BME280;8878;-33.370;-70.552;2023-05-27T11:27:38;92260.91;;;13.29;62.50
17521;BME280;8878;-33.370;-70.552;2023-05-27T11:30:08;92259.53;;;12.64;64.99
17521;BME280;8878;-33.370;-70.552;2023-05-27T11:32:39;92244.72;;;12.63;65.17
17521;BME280;8878;-33.370;-70.552;2023-05-27T11:35:14;92263.22;;;12.68;65.32
17521;BME280;8878;-33.370;-70.552;2023-05-27T11:37:46;92263.66;;;12.80;65.45
17521;BME280;8878;-33.370;-70.552;2023-05-27T11:40:20;92242.19;;;12.81;66.20
17521;BME280;8878;-33.370;-70.552;2023-05-27T11:42:51;92239.84;;;13.14;64.37
17521;BME280;8878;-33.370;-70.552;2023-05-27T11:45:21;92257.78;;;13.22;64.32
17521;BME280;8878;-33.370;-70.552;2023-05-27T11:47:52;92251.28;;;13.04;63.83
17521;BME280;8878;-33.370;-70.552;2023-05-27T11:50:22;92254.00;;;12.99;64.95
17521;BME280;8878;-33.370;-70.552;2023-05-27T11:52:53;92249.97;;;13.07;64.39
17521;BME280;8878;-33.370;-70.552;2023-05-27T11:55:25;92238.22;;;12.79;64.86
17521;BME280;8878;-33.370;-70.552;2023-05-27T11:57:54;92241.72;;;13.08;64.43
17521;BME280;8878;-33.370;-70.552;2023-05-27T12:00:24;92229.38;;;12.99;63.56
17521;BME280;8878;-33.370;-70.552;2023-05-27T12:02:53;92233.13;;;13.26;63.35
17521;BME280;8878;-33.370;-70.552;2023-05-27T12:05:23;92234.09;;;13.36;62.33
17521;BME280;8878;-33.370;-70.552;2023-05-27T12:07:52;92221.91;;;13.35;62.18
17521;BME280;8878;-33.370;-70.552;2023-05-27T12:10:24;92248.09;;;13.36;62.02
17521;BME280;8878;-33.370;-70.552;2023-05-27T12:12:53;92233.72;;;13.18;62.10
17521;BME280;8878;-33.370;-70.552;2023-05-27T12:15:31;92247.78;;;13.09;62.30
17521;BME280;8878;-33.370;-70.552;2023-05-27T12:18:00;92255.53;;;13.05;62.06
17521;BME280;8878;-33.370;-70.552;2023-05-27T12:20:30;92254.81;;;13.28;61.68
17521;BME280;8878;-33.370;-70.552;2023-05-27T12:22:59;92267.22;;;13.33;60.67
17521;BME280;8878;-33.370;-70.552;2023-05-27T12:25:31;92276.56;;;13.25;60.74
17521;BME280;8878;-33.370;-70.552;2023-05-27T12:28:00;92263.53;;;13.58;60.32
17521;BME280;8878;-33.370;-70.552;2023-05-27T12:30:30;92268.53;;;13.36;60.41
17521;BME280;8878;-33.370;-70.552;2023-05-27T12:33:00;92276.78;;;13.58;60.17
17521;BME280;8878;-33.370;-70.552;2023-05-27T12:35:30;92274.13;;;13.58;60.48
17521;BME280;8878;-33.370;-70.552;2023-05-27T12:38:00;92277.25;;;13.65;60.38
17521;BME280;8878;-33.370;-70.552;2023-05-27T12:40:32;92285.25;;;13.60;59.91
17521;BME280;8878;-33.370;-70.552;2023-05-27T12:43:01;92280.22;;;13.35;60.67
17521;BME280;8878;-33.370;-70.552;2023-05-27T12:45:31;92288.50;;;13.52;60.44
17521;BME280;8878;-33.370;-70.552;2023-05-27T12:48:01;92296.13;;;13.58;60.65
17521;BME280;8878;-33.370;-70.552;2023-05-27T12:50:31;92298.59;;;13.21;60.98
17521;BME280;8878;-33.370;-70.552;2023-05-27T12:53:00;92296.00;;;13.45;60.84
17521;BME280;8878;-33.370;-70.552;2023-05-27T12:55:32;92297.53;;;13.51;60.31
17521;BME280;8878;-33.370;-70.552;2023-05-27T12:58:01;92307.72;;;13.67;60.71